sensor_id;sensor_type;location;lat;lon;timestamp;pressure;altitude;pressure_sealevel;temperature;humidity
21803;BME280;18591;47.080;22.214;2022-08-11T00:01:24;99874.97;;;23.53;41.90
21803;BME280;18591;47.080;22.214;2022-08-11T00:03:27;99879.84;;;23.50;41.88
21803;BME280;18591;47.080;22.214;2022-08-11T00:05:54;99873.88;;;23.44;41.91
21803;BME280;18591;47.080;22.214;2022-08-11T00:07:57;99874.91;;;23.43;42.24
21803;BME280;18591;47.080;22.214;2022-08-11T00:10:00;99880.38;;;23.43;41.88
21803;BME280;18591;47.080;22.214;2022-08-11T00:12:03;99881.53;;;23.41;42.07
21803;BME280;18591;47.080;22.214;2022-08-11T00:16:22;99875.84;;;23.33;42.47
21803;BME280;18591;47.080;22.214;2022-08-11T00:18:24;99866.72;;;23.32;42.38
21803;BME280;18591;47.080;22.214;2022-08-11T00:20:31;99867.53;;;23.23;42.19
21803;BME280;18591;47.080;22.214;2022-08-11T00:22:35;99873.50;;;23.28;42.57
21803;BME280;18591;47.080;22.214;2022-08-11T00:24:39;99874.00;;;23.22;42.46
21803;BME280;18591;47.080;22.214;2022-08-11T00:26:56;99870.78;;;23.17;41.94
21803;BME280;18591;47.080;22.214;2022-08-11T00:29:08;99879.06;;;23.06;43.06
21803;BME280;18591;47.080;22.214;2022-08-11T00:33:24;99870.34;;;23.00;43.07
21803;BME280;18591;47.080;22.214;2022-08-11T00:35:45;99866.50;;;22.92;42.71
21803;BME280;18591;47.080;22.214;2022-08-11T00:37:58;99855.66;;;22.90;43.13
21803;BME280;18591;47.080;22.214;2022-08-11T00:40:03;99862.75;;;22.93;42.87
21803;BME280;18591;47.080;22.214;2022-08-11T00:42:23;99866.63;;;22.90;43.47
21803;BME280;18591;47.080;22.214;2022-08-11T00:54:08;99854.75;;;22.69;45.10
21803;BME280;18591;47.080;22.214;2022-08-11T01:01:07;99855.06;;;22.75;46.18
21803;BME280;18591;47.080;22.214;2022-08-11T01:05:41;99850.88;;;22.71;46.67
21803;BME280;18591;47.080;22.214;2022-08-11T01:22:27;99845.47;;;22.81;47.75
21803;BME280;18591;47.080;22.214;2022-08-11T01:27:19;99848.50;;;22.67;47.06
21803;BME280;18591;47.080;22.214;2022-08-11T01:32:33;99848.94;;;22.51;47.11
21803;BME280;18591;47.080;22.214;2022-08-11T01:39:45;99855.66;;;22.35;48.84
21803;BME280;18591;47.080;22.214;2022-08-11T01:48:03;99861.13;;;22.13;49.76
21803;BME280;18591;47.080;22.214;2022-08-11T01:50:17;99864.47;;;22.16;48.90
21803;BME280;18591;47.080;22.214;2022-08-11T01:52:28;99860.75;;;22.17;49.35
21803;BME280;18591;47.080;22.214;2022-08-11T01:57:26;99857.38;;;22.14;48.95
21803;BME280;18591;47.080;22.214;2022-08-11T01:59:51;99864.47;;;22.05;49.04
21803;BME280;18591;47.080;22.214;2022-08-11T02:06:57;99863.88;;;22.24;47.68
21803;BME280;18591;47.080;22.214;2022-08-11T02:11:54;99852.56;;;22.29;48.23
21803;BME280;18591;47.080;22.214;2022-08-11T02:16:32;99857.41;;;22.25;47.36
21803;BME280;18591;47.080;22.214;2022-08-11T02:18:39;99859.16;;;22.26;46.95
21803;BME280;18591;47.080;22.214;2022-08-11T02:21:05;99854.78;;;22.24;46.92
21803;BME280;18591;47.080;22.214;2022-08-11T02:24:03;99854.41;;;22.17;47.50
21803;BME280;18591;47.080;22.214;2022-08-11T02:26:10;99851.31;;;22.22;47.43
21803;BME280;18591;47.080;22.214;2022-08-11T02:30:23;99848.94;;;22.17;46.65
21803;BME280;18591;47.080;22.214;2022-08-11T02:32:35;99852.91;;;22.13;47.75
21803;BME280;18591;47.080;22.214;2022-08-11T02:35:13;99850.28;;;22.00;47.27
21803;BME280;18591;47.080;22.214;2022-08-11T02:39:37;99851.31;;;21.99;47.50
21803;BME280;18591;47.080;22.214;2022-08-11T02:47:13;99850.66;;;21.84;46.63
21803;BME280;18591;47.080;22.214;2022-08-11T02:52:22;99857.81;;;21.63;48.07
21803;BME280;18591;47.080;22.214;2022-08-11T02:54:31;99859.44;;;21.65;47.21
21803;BME280;18591;47.080;22.214;2022-08-11T02:56:45;99853.69;;;21.46;47.98
21803;BME280;18591;47.080;22.214;2022-08-11T03:01:26;99856.59;;;21.31;48.04
21803;BME280;18591;47.080;22.214;2022-08-11T03:03:34;99854.22;;;21.27;48.46
21803;BME280;18591;47.080;22.214;2022-08-11T03:05:48;99858.56;;;21.29;48.25
21803;BME280;18591;47.080;22.214;2022-08-11T03:10:28;99852.44;;;21.39;47.90
21803;BME280;18591;47.080;22.214;2022-08-11T03:27:06;99848.47;;;21.43;47.09
21803;BME280;18591;47.080;22.214;2022-08-11T03:29:34;99852.44;;;21.39;48.07
21803;BME280;18591;47.080;22.214;2022-08-11T03:31:58;99855.31;;;21.24;48.06
21803;BME280;18591;47.080;22.214;2022-08-11T03:34:14;99855.63;;;21.33;48.11
21803;BME280;18591;47.080;22.214;2022-08-11T03:44:38;99855.72;;;21.31;48.25
21803;BME280;18591;47.080;22.214;2022-08-11T03:51:28;99854.22;;;21.27;47.48
21803;BME280;18591;47.080;22.214;2022-08-11T04:14:03;99853.31;;;21.15;48.00
21803;BME280;18591;47.080;22.214;2022-08-11T04:16:40;99853.06;;;21.18;48.50
21803;BME280;18591;47.080;22.214;2022-08-11T04:19:27;99859.66;;;21.16;48.40
21803;BME280;18591;47.080;22.214;2022-08-11T04:24:38;99853.31;;;21.15;49.08
21803;BME280;18591;47.080;22.214;2022-08-11T04:27:19;99849.94;;;21.12;49.88
21803;BME280;18591;47.080;22.214;2022-08-11T04:42:12;99867.88;;;21.27;48.83
21803;BME280;18591;47.080;22.214;2022-08-11T04:45:00;99865.56;;;21.34;48.72
21803;BME280;18591;47.080;22.214;2022-08-11T04:47:32;99863.13;;;21.42;48.88
21803;BME280;18591;47.080;22.214;2022-08-11T04:50:21;99860.84;;;21.36;48.92
21803;BME280;18591;47.080;22.214;2022-08-11T04:53:12;99862.41;;;21.51;48.52
21803;BME280;18591;47.080;22.214;2022-08-11T04:56:13;99863.03;;;21.55;48.77
21803;BME280;18591;47.080;22.214;2022-08-11T05:01:34;99859.84;;;21.72;48.04
21803;BME280;18591;47.080;22.214;2022-08-11T05:06:08;99850.41;;;21.87;47.69
21803;BME280;18591;47.080;22.214;2022-08-11T05:13:06;99866.75;;;22.23;47.39
21803;BME280;18591;47.080;22.214;2022-08-11T05:15:44;99857.16;;;22.28;47.43
21803;BME280;18591;47.080;22.214;2022-08-11T05:18:16;99845.44;;;22.37;47.36
21803;BME280;18591;47.080;22.214;2022-08-11T05:20:57;99845.81;;;22.44;47.18
21803;BME280;18591;47.080;22.214;2022-08-11T05:23:25;99844.44;;;22.61;46.83
21803;BME280;18591;47.080;22.214;2022-08-11T05:25:46;99844.66;;;22.69;46.84
21803;BME280;18591;47.080;22.214;2022-08-11T05:28:35;99850.94;;;22.81;46.37
21803;BME280;18591;47.080;22.214;2022-08-11T05:31:05;99850.19;;;22.90;46.40
21803;BME280;18591;47.080;22.214;2022-08-11T05:33:34;99846.16;;;23.06;46.36
21803;BME280;18591;47.080;22.214;2022-08-11T05:36:23;99849.88;;;23.16;45.69
21803;BME280;18591;47.080;22.214;2022-08-11T05:38:30;99851.28;;;23.31;45.78
21803;BME280;18591;47.080;22.214;2022-08-11T05:40:53;99854.31;;;23.49;45.83
21803;BME280;18591;47.080;22.214;2022-08-11T05:43:15;99851.75;;;23.57;45.30
21803;BME280;18591;47.080;22.214;2022-08-11T05:45:36;99852.81;;;23.66;45.27
21803;BME280;18591;47.080;22.214;2022-08-11T05:48:05;99848.91;;;23.80;44.98
21803;BME280;18591;47.080;22.214;2022-08-11T05:50:27;99847.09;;;23.90;45.25
21803;BME280;18591;47.080;22.214;2022-08-11T05:52:47;99849.72;;;24.01;45.09
21803;BME280;18591;47.080;22.214;2022-08-11T05:55:13;99848.06;;;24.10;44.82
21803;BME280;18591;47.080;22.214;2022-08-11T05:57:36;99846.63;;;24.16;44.93
21803;BME280;18591;47.080;22.214;2022-08-11T06:00:06;99841.03;;;24.27;44.47
21803;BME280;18591;47.080;22.214;2022-08-11T06:02:11;99834.28;;;24.41;44.58
21803;BME280;18591;47.080;22.214;2022-08-11T06:04:19;99837.81;;;24.52;44.05
21803;BME280;18591;47.080;22.214;2022-08-11T06:06:24;99844.47;;;24.60;44.66
21803;BME280;18591;47.080;22.214;2022-08-11T06:08:30;99839.13;;;24.58;44.75
21803;BME280;18591;47.080;22.214;2022-08-11T06:10:39;99833.19;;;24.53;43.47
21803;BME280;18591;47.080;22.214;2022-08-11T06:12:42;99841.47;;;24.72;43.73
21803;BME280;18591;47.080;22.214;2022-08-11T06:14:45;99839.47;;;24.84;44.33
21803;BME280;18591;47.080;22.214;2022-08-11T06:16:49;99839.19;;;24.87;44.20
21803;BME280;18591;47.080;22.214;2022-08-11T06:18:51;99838.47;;;24.95;43.90
21803;BME280;18591;47.080;22.214;2022-08-11T06:20:55;99834.41;;;25.09;43.30
21803;BME280;18591;47.080;22.214;2022-08-11T06:23:03;99839.09;;;25.18;42.69
21803;BME280;18591;47.080;22.214;2022-08-11T06:25:08;99835.03;;;25.32;42.52
21803;BME280;18591;47.080;22.214;2022-08-11T06:27:18;99831.25;;;25.42;41.37
21803;BME280;18591;47.080;22.214;2022-08-11T06:29:22;99831.34;;;25.60;41.81
21803;BME280;18591;47.080;22.214;2022-08-11T06:31:53;99838.97;;;25.76;41.50
21803;BME280;18591;47.080;22.214;2022-08-11T06:34:27;99832.75;;;25.94;40.69
21803;BME280;18591;47.080;22.214;2022-08-11T06:41:19;99834.50;;;26.22;39.39
21803;BME280;18591;47.080;22.214;2022-08-11T06:43:35;99828.09;;;26.32;40.17
21803;BME280;18591;47.080;22.214;2022-08-11T06:46:05;99833.06;;;26.46;39.70
21803;BME280;18591;47.080;22.214;2022-08-11T06:48:15;99829.69;;;26.62;39.63
21803;BME280;18591;47.080;22.214;2022-08-11T06:50:19;99833.50;;;26.79;39.40
21803;BME280;18591;47.080;22.214;2022-08-11T06:52:40;99833.88;;;26.84;38.77
21803;BME280;18591;47.080;22.214;2022-08-11T06:54:49;99834.69;;;26.94;38.50
21803;BME280;18591;47.080;22.214;2022-08-11T06:56:58;99835.47;;;27.04;39.05
21803;BME280;18591;47.080;22.214;2022-08-11T06:59:35;99834.66;;;27.22;38.79
21803;BME280;18591;47.080;22.214;2022-08-11T07:04:07;99837.38;;;27.40;37.75
21803;BME280;18591;47.080;22.214;2022-08-11T07:06:32;99841.78;;;27.50;37.70
21803;BME280;18591;47.080;22.214;2022-08-11T07:09:18;99840.50;;;27.63;37.57
21803;BME280;18591;47.080;22.214;2022-08-11T07:12:06;99837.41;;;27.66;36.86
21803;BME280;18591;47.080;22.214;2022-08-11T07:14:30;99833.84;;;27.73;37.48
21803;BME280;18591;47.080;22.214;2022-08-11T07:16:52;99833.06;;;27.81;36.83
21803;BME280;18591;47.080;22.214;2022-08-11T07:19:00;99829.25;;;27.82;36.41
21803;BME280;18591;47.080;22.214;2022-08-11T07:21:27;99825.53;;;27.91;36.50
21803;BME280;18591;47.080;22.214;2022-08-11T07:24:16;99825.31;;;28.11;35.92
21803;BME280;18591;47.080;22.214;2022-08-11T07:26:58;99823.47;;;28.28;36.09
21803;BME280;18591;47.080;22.214;2022-08-11T07:29:20;99822.84;;;28.34;35.60
21803;BME280;18591;47.080;22.214;2022-08-11T07:31:47;99821.44;;;28.30;34.15
21803;BME280;18591;47.080;22.214;2022-08-11T07:34:18;99821.06;;;28.25;34.92
21803;BME280;18591;47.080;22.214;2022-08-11T07:36:21;99813.84;;;28.32;35.05
21803;BME280;18591;47.080;22.214;2022-08-11T07:38:42;99814.38;;;28.43;35.00
21803;BME280;18591;47.080;22.214;2022-08-11T07:40:48;99815.13;;;28.46;34.81
21803;BME280;18591;47.080;22.214;2022-08-11T07:42:51;99804.88;;;28.38;35.44
21803;BME280;18591;47.080;22.214;2022-08-11T07:44:55;99813.59;;;28.51;35.75
21803;BME280;18591;47.080;22.214;2022-08-11T07:47:17;99808.63;;;28.63;35.90
21803;BME280;18591;47.080;22.214;2022-08-11T07:49:38;99816.22;;;28.69;35.88
21803;BME280;18591;47.080;22.214;2022-08-11T07:52:00;99804.88;;;28.72;36.06
21803;BME280;18591;47.080;22.214;2022-08-11T07:54:21;99806.22;;;28.76;36.00
21803;BME280;18591;47.080;22.214;2022-08-11T07:56:28;99804.31;;;28.77;36.62
21803;BME280;18591;47.080;22.214;2022-08-11T07:58:53;99805.91;;;28.87;35.72
21803;BME280;18591;47.080;22.214;2022-08-11T08:01:21;99806.09;;;28.94;36.12
21803;BME280;18591;47.080;22.214;2022-08-11T08:03:43;99802.13;;;28.97;35.17
21803;BME280;18591;47.080;22.214;2022-08-11T08:06:04;99795.72;;;29.04;35.16
21803;BME280;18591;47.080;22.214;2022-08-11T08:08:39;99799.22;;;29.15;35.69
21803;BME280;18591;47.080;22.214;2022-08-11T08:11:01;99802.50;;;29.18;35.36
21803;BME280;18591;47.080;22.214;2022-08-11T08:13:30;99797.66;;;29.20;35.26
21803;BME280;18591;47.080;22.214;2022-08-11T08:15:52;99797.16;;;29.25;34.84
21803;BME280;18591;47.080;22.214;2022-08-11T08:18:13;99791.97;;;29.22;35.09
21803;BME280;18591;47.080;22.214;2022-08-11T08:20:31;99792.47;;;29.34;35.18
21803;BME280;18591;47.080;22.214;2022-08-11T08:22:35;99794.06;;;29.44;34.46
21803;BME280;18591;47.080;22.214;2022-08-11T08:24:41;99793.34;;;29.50;34.52
21803;BME280;18591;47.080;22.214;2022-08-11T08:26:43;99773.28;;;29.65;34.61
21803;BME280;18591;47.080;22.214;2022-08-11T08:29:02;99786.06;;;29.74;35.22
21803;BME280;18591;47.080;22.214;2022-08-11T08:31:24;99784.31;;;29.81;34.28
21803;BME280;18591;47.080;22.214;2022-08-11T08:33:30;99776.72;;;29.83;32.89
21803;BME280;18591;47.080;22.214;2022-08-11T08:35:35;99771.13;;;29.91;33.50
21803;BME280;18591;47.080;22.214;2022-08-11T08:37:56;99773.03;;;29.99;32.89
21803;BME280;18591;47.080;22.214;2022-08-11T08:40:00;99771.47;;;29.97;32.90
21803;BME280;18591;47.080;22.214;2022-08-11T08:42:10;99775.31;;;29.79;31.61
21803;BME280;18591;47.080;22.214;2022-08-11T08:44:14;99779.97;;;29.87;32.74
21803;BME280;18591;47.080;22.214;2022-08-11T08:46:52;99775.47;;;29.94;32.59
21803;BME280;18591;47.080;22.214;2022-08-11T08:48:59;99781.34;;;29.99;32.46
21803;BME280;18591;47.080;22.214;2022-08-11T08:51:11;99782.03;;;30.01;32.03
21803;BME280;18591;47.080;22.214;2022-08-11T08:53:54;99779.94;;;29.95;32.68
21803;BME280;18591;47.080;22.214;2022-08-11T08:56:02;99782.06;;;29.93;32.86
21803;BME280;18591;47.080;22.214;2022-08-11T08:58:06;99781.66;;;30.04;32.48
21803;BME280;18591;47.080;22.214;2022-08-11T09:00:09;99776.78;;;30.14;32.47
21803;BME280;18591;47.080;22.214;2022-08-11T09:02:23;99773.84;;;30.08;31.66
21803;BME280;18591;47.080;22.214;2022-08-11T09:04:36;99773.50;;;30.03;32.27
21803;BME280;18591;47.080;22.214;2022-08-11T09:06:38;99770.44;;;29.89;31.93
21803;BME280;18591;47.080;22.214;2022-08-11T09:08:41;99766.13;;;29.87;31.82
21803;BME280;18591;47.080;22.214;2022-08-11T09:10:48;99764.53;;;29.92;31.44
21803;BME280;18591;47.080;22.214;2022-08-11T09:13:14;99767.16;;;29.94;32.52
21803;BME280;18591;47.080;22.214;2022-08-11T09:15:17;99768.16;;;30.01;32.07
21803;BME280;18591;47.080;22.214;2022-08-11T09:17:21;99761.22;;;30.13;32.01
21803;BME280;18591;47.080;22.214;2022-08-11T09:19:25;99748.69;;;30.26;31.14
21803;BME280;18591;47.080;22.214;2022-08-11T09:21:27;99753.84;;;30.37;31.28
21803;BME280;18591;47.080;22.214;2022-08-11T09:23:51;99759.13;;;30.47;30.87
21803;BME280;18591;47.080;22.214;2022-08-11T09:26:27;99750.28;;;30.51;31.00
21803;BME280;18591;47.080;22.214;2022-08-11T09:28:49;99746.22;;;30.62;31.45
21803;BME280;18591;47.080;22.214;2022-08-11T09:30:52;99746.91;;;30.64;30.99
21803;BME280;18591;47.080;22.214;2022-08-11T09:32:58;99741.81;;;30.76;30.74
21803;BME280;18591;47.080;22.214;2022-08-11T09:35:01;99745.94;;;30.88;30.82
21803;BME280;18591;47.080;22.214;2022-08-11T09:37:07;99739.41;;;30.73;30.58
21803;BME280;18591;47.080;22.214;2022-08-11T09:39:48;99743.50;;;30.85;31.23
21803;BME280;18591;47.080;22.214;2022-08-11T09:42:09;99737.22;;;30.91;30.73
21803;BME280;18591;47.080;22.214;2022-08-11T09:44:17;99731.31;;;30.94;31.02
21803;BME280;18591;47.080;22.214;2022-08-11T09:46:38;99730.75;;;30.99;30.67
21803;BME280;18591;47.080;22.214;2022-08-11T09:48:44;99730.91;;;30.97;29.90
21803;BME280;18591;47.080;22.214;2022-08-11T09:50:49;99712.44;;;30.90;30.48
21803;BME280;18591;47.080;22.214;2022-08-11T09:52:51;99728.28;;;31.04;30.74
21803;BME280;18591;47.080;22.214;2022-08-11T09:55:14;99728.75;;;31.08;30.26
21803;BME280;18591;47.080;22.214;2022-08-11T09:57:18;99730.38;;;31.02;29.96
21803;BME280;18591;47.080;22.214;2022-08-11T09:59:39;99727.78;;;31.00;30.00
21803;BME280;18591;47.080;22.214;2022-08-11T10:01:44;99730.53;;;31.00;30.01
21803;BME280;18591;47.080;22.214;2022-08-11T10:03:48;99728.03;;;30.91;29.69
21803;BME280;18591;47.080;22.214;2022-08-11T10:05:55;99726.38;;;30.81;29.65
21803;BME280;18591;47.080;22.214;2022-08-11T10:08:17;99723.22;;;30.85;30.34
21803;BME280;18591;47.080;22.214;2022-08-11T10:10:21;99720.06;;;30.88;30.14
21803;BME280;18591;47.080;22.214;2022-08-11T10:12:33;99714.72;;;30.86;29.59
21803;BME280;18591;47.080;22.214;2022-08-11T10:14:42;99725.19;;;30.99;30.28
21803;BME280;18591;47.080;22.214;2022-08-11T10:17:06;99724.28;;;31.07;30.47
21803;BME280;18591;47.080;22.214;2022-08-11T10:19:09;99729.44;;;31.10;30.00
21803;BME280;18591;47.080;22.214;2022-08-11T10:23:37;99723.75;;;31.03;30.34
21803;BME280;18591;47.080;22.214;2022-08-11T10:26:06;99720.03;;;30.96;30.21
21803;BME280;18591;47.080;22.214;2022-08-11T10:28:34;99721.75;;;30.97;30.56
21803;BME280;18591;47.080;22.214;2022-08-11T10:30:57;99715.13;;;30.98;30.32
21803;BME280;18591;47.080;22.214;2022-08-11T10:33:18;99716.19;;;30.97;30.83
21803;BME280;18591;47.080;22.214;2022-08-11T10:35:48;99714.28;;;30.97;30.46
21803;BME280;18591;47.080;22.214;2022-08-11T10:37:50;99708.94;;;31.11;30.26
21803;BME280;18591;47.080;22.214;2022-08-11T10:40:14;99705.63;;;31.15;29.92
21803;BME280;18591;47.080;22.214;2022-08-11T10:42:17;99703.69;;;31.16;29.87
21803;BME280;18591;47.080;22.214;2022-08-11T10:44:59;99712.00;;;31.01;30.05
21803;BME280;18591;47.080;22.214;2022-08-11T10:47:03;99707.66;;;30.84;29.43
21803;BME280;18591;47.080;22.214;2022-08-11T10:49:25;99710.94;;;30.79;29.63
21803;BME280;18591;47.080;22.214;2022-08-11T10:51:28;99705.09;;;30.74;29.47
21803;BME280;18591;47.080;22.214;2022-08-11T10:53:52;99706.13;;;30.73;29.85
21803;BME280;18591;47.080;22.214;2022-08-11T10:56:13;99696.81;;;30.66;29.73
21803;BME280;18591;47.080;22.214;2022-08-11T10:58:37;99698.59;;;30.58;29.80
21803;BME280;18591;47.080;22.214;2022-08-11T11:00:52;99693.81;;;30.52;29.48
21803;BME280;18591;47.080;22.214;2022-08-11T11:02:58;99692.75;;;30.53;29.54
21803;BME280;18591;47.080;22.214;2022-08-11T11:05:28;99685.06;;;30.64;30.28
21803;BME280;18591;47.080;22.214;2022-08-11T11:07:55;99688.91;;;30.77;29.78
21803;BME280;18591;47.080;22.214;2022-08-11T11:10:03;99685.38;;;30.92;29.38
21803;BME280;18591;47.080;22.214;2022-08-11T11:12:12;99692.94;;;30.98;29.20
21803;BME280;18591;47.080;22.214;2022-08-11T11:14:35;99687.59;;;30.96;29.25
21803;BME280;18591;47.080;22.214;2022-08-11T11:17:02;99690.53;;;30.95;29.18
21803;BME280;18591;47.080;22.214;2022-08-11T11:19:25;99685.97;;;31.02;29.35
21803;BME280;18591;47.080;22.214;2022-08-11T11:21:29;99692.22;;;31.04;29.23
21803;BME280;18591;47.080;22.214;2022-08-11T11:30:18;99672.91;;;31.25;28.63
21803;BME280;18591;47.080;22.214;2022-08-11T11:32:26;99672.53;;;31.29;28.48
21803;BME280;18591;47.080;22.214;2022-08-11T11:36:55;99660.03;;;31.62;28.35
21803;BME280;18591;47.080;22.214;2022-08-11T11:38:58;99655.94;;;31.73;28.46
21803;BME280;18591;47.080;22.214;2022-08-11T11:41:00;99661.50;;;31.73;27.56
21803;BME280;18591;47.080;22.214;2022-08-11T11:43:21;99656.84;;;31.80;27.98
21803;BME280;18591;47.080;22.214;2022-08-11T11:45:23;99656.00;;;31.80;27.92
21803;BME280;18591;47.080;22.214;2022-08-11T11:47:26;99654.19;;;31.72;27.05
21803;BME280;18591;47.080;22.214;2022-08-11T11:49:29;99653.16;;;31.73;27.52
21803;BME280;18591;47.080;22.214;2022-08-11T11:51:33;99656.97;;;31.72;27.49
21803;BME280;18591;47.080;22.214;2022-08-11T11:53:35;99655.25;;;31.71;27.35
21803;BME280;18591;47.080;22.214;2022-08-11T11:55:37;99646.81;;;31.79;27.50
21803;BME280;18591;47.080;22.214;2022-08-11T11:57:40;99644.50;;;31.83;27.76
21803;BME280;18591;47.080;22.214;2022-08-11T12:00:08;99647.28;;;31.98;27.69
21803;BME280;18591;47.080;22.214;2022-08-11T12:02:35;99645.16;;;32.15;27.44
21803;BME280;18591;47.080;22.214;2022-08-11T12:04:40;99651.56;;;32.15;26.74
21803;BME280;18591;47.080;22.214;2022-08-11T12:06:43;99650.50;;;32.16;26.60
21803;BME280;18591;47.080;22.214;2022-08-11T12:08:48;99639.06;;;32.04;26.39
21803;BME280;18591;47.080;22.214;2022-08-11T12:10:57;99638.38;;;32.02;26.45
21803;BME280;18591;47.080;22.214;2022-08-11T12:13:18;99633.22;;;31.99;26.59
21803;BME280;18591;47.080;22.214;2022-08-11T12:15:38;99633.28;;;32.06;26.73
21803;BME280;18591;47.080;22.214;2022-08-11T12:18:01;99637.00;;;32.13;27.04
21803;BME280;18591;47.080;22.214;2022-08-11T12:20:03;99638.81;;;32.21;26.48
21803;BME280;18591;47.080;22.214;2022-08-11T12:22:25;99628.63;;;32.28;26.53
21803;BME280;18591;47.080;22.214;2022-08-11T12:24:46;99619.13;;;32.37;26.11
21803;BME280;18591;47.080;22.214;2022-08-11T12:27:07;99621.91;;;32.37;26.15
21803;BME280;18591;47.080;22.214;2022-08-11T12:29:26;99624.72;;;32.44;25.83
21803;BME280;18591;47.080;22.214;2022-08-11T12:31:29;99619.84;;;32.46;25.93
21803;BME280;18591;47.080;22.214;2022-08-11T12:33:31;99611.03;;;32.42;26.01
21803;BME280;18591;47.080;22.214;2022-08-11T12:35:38;99611.34;;;32.32;25.86
21803;BME280;18591;47.080;22.214;2022-08-11T12:38:02;99615.13;;;32.25;26.31
21803;BME280;18591;47.080;22.214;2022-08-11T12:40:16;99612.41;;;32.31;25.95
21803;BME280;18591;47.080;22.214;2022-08-11T12:43:01;99608.44;;;32.41;25.88
21803;BME280;18591;47.080;22.214;2022-08-11T12:45:40;99611.97;;;32.49;25.76
21803;BME280;18591;47.080;22.214;2022-08-11T12:47:49;99615.81;;;32.48;25.66
21803;BME280;18591;47.080;22.214;2022-08-11T12:50:32;99612.91;;;32.57;25.99
21803;BME280;18591;47.080;22.214;2022-08-11T12:52:57;99615.13;;;32.46;25.95
21803;BME280;18591;47.080;22.214;2022-08-11T12:55:11;99606.47;;;32.35;25.41
21803;BME280;18591;47.080;22.214;2022-08-11T12:57:16;99607.66;;;32.25;25.49
21803;BME280;18591;47.080;22.214;2022-08-11T12:59:39;99616.88;;;32.11;25.68
21803;BME280;18591;47.080;22.214;2022-08-11T13:02:01;99608.41;;;31.98;26.14
21803;BME280;18591;47.080;22.214;2022-08-11T13:04:25;99607.34;;;31.99;26.10
21803;BME280;18591;47.080;22.214;2022-08-11T13:06:51;99601.47;;;32.08;25.82
21803;BME280;18591;47.080;22.214;2022-08-11T13:08:54;99606.38;;;32.06;25.51
21803;BME280;18591;47.080;22.214;2022-08-11T13:11:02;99604.72;;;32.12;25.87
21803;BME280;18591;47.080;22.214;2022-08-11T13:13:23;99596.78;;;32.09;25.52
21803;BME280;18591;47.080;22.214;2022-08-11T13:15:47;99596.56;;;32.10;25.97
21803;BME280;18591;47.080;22.214;2022-08-11T13:17:54;99598.91;;;32.07;25.96
21803;BME280;18591;47.080;22.214;2022-08-11T13:19:57;99588.53;;;32.01;25.53
21803;BME280;18591;47.080;22.214;2022-08-11T13:22:00;99596.44;;;31.97;26.02
21803;BME280;18591;47.080;22.214;2022-08-11T13:24:06;99586.94;;;32.06;25.92
21803;BME280;18591;47.080;22.214;2022-08-11T13:26:09;99584.78;;;32.08;25.36
21803;BME280;18591;47.080;22.214;2022-08-11T13:28:11;99583.00;;;32.01;25.45
21803;BME280;18591;47.080;22.214;2022-08-11T13:30:14;99581.28;;;31.85;25.34
21803;BME280;18591;47.080;22.214;2022-08-11T13:32:41;99579.09;;;31.80;25.67
21803;BME280;18591;47.080;22.214;2022-08-11T13:34:46;99587.81;;;31.77;25.41
21803;BME280;18591;47.080;22.214;2022-08-11T13:36:54;99582.84;;;31.73;25.33
21803;BME280;18591;47.080;22.214;2022-08-11T13:38:56;99585.03;;;31.77;25.37
21803;BME280;18591;47.080;22.214;2022-08-11T13:40:59;99576.31;;;31.80;25.33
21803;BME280;18591;47.080;22.214;2022-08-11T13:43:01;99580.03;;;31.87;25.43
21803;BME280;18591;47.080;22.214;2022-08-11T13:45:05;99579.44;;;31.92;25.43
21803;BME280;18591;47.080;22.214;2022-08-11T13:47:11;99582.53;;;31.97;25.40
21803;BME280;18591;47.080;22.214;2022-08-11T13:49:15;99575.13;;;32.04;25.71
21803;BME280;18591;47.080;22.214;2022-08-11T13:51:18;99571.38;;;32.12;25.30
21803;BME280;18591;47.080;22.214;2022-08-11T13:53:37;99577.59;;;32.14;25.61
21803;BME280;18591;47.080;22.214;2022-08-11T13:55:40;99577.78;;;32.13;25.33
21803;BME280;18591;47.080;22.214;2022-08-11T13:57:53;99561.13;;;32.13;24.81
21803;BME280;18591;47.080;22.214;2022-08-11T14:00:15;99568.72;;;32.04;25.23
21803;BME280;18591;47.080;22.214;2022-08-11T14:02:29;99562.78;;;32.07;24.99
21803;BME280;18591;47.080;22.214;2022-08-11T14:04:40;99555.69;;;32.04;25.21
21803;BME280;18591;47.080;22.214;2022-08-11T14:06:51;99563.63;;;32.07;25.03
21803;BME280;18591;47.080;22.214;2022-08-11T14:08:54;99563.31;;;32.17;25.12
21803;BME280;18591;47.080;22.214;2022-08-11T14:11:00;99555.97;;;32.09;24.71
21803;BME280;18591;47.080;22.214;2022-08-11T14:13:42;99567.25;;;32.08;24.76
21803;BME280;18591;47.080;22.214;2022-08-11T14:15:51;99563.75;;;31.99;25.04
21803;BME280;18591;47.080;22.214;2022-08-11T14:18:08;99562.78;;;31.92;25.30
21803;BME280;18591;47.080;22.214;2022-08-11T14:20:15;99557.81;;;31.87;24.93
21803;BME280;18591;47.080;22.214;2022-08-11T14:22:40;99558.34;;;31.76;24.80
21803;BME280;18591;47.080;22.214;2022-08-11T14:24:44;99550.00;;;31.76;24.99
21803;BME280;18591;47.080;22.214;2022-08-11T14:26:50;99556.31;;;31.70;24.84
21803;BME280;18591;47.080;22.214;2022-08-11T14:30:55;99554.22;;;31.57;24.54
21803;BME280;18591;47.080;22.214;2022-08-11T14:33:02;99553.94;;;31.52;24.90
21803;BME280;18591;47.080;22.214;2022-08-11T14:35:18;99551.84;;;31.54;25.09
21803;BME280;18591;47.080;22.214;2022-08-11T14:37:22;99562.88;;;31.48;24.54
21803;BME280;18591;47.080;22.214;2022-08-11T14:39:33;99557.44;;;31.39;24.48
21803;BME280;18591;47.080;22.214;2022-08-11T14:41:44;99554.13;;;31.36;25.01
21803;BME280;18591;47.080;22.214;2022-08-11T14:44:14;99551.97;;;31.46;24.95
21803;BME280;18591;47.080;22.214;2022-08-11T14:46:35;99552.44;;;31.50;25.29